Terminal Aerodrome Forecast
Issued by NWS Dallas/Fort Worth, TX

Home | Current Version | Previous Version | Text Only | Print | Product List | Glossary On
Versions: 1 2 3 4 5 6 7 8 9 10 11 12 13 14 15 16 17 18 19 20 21 22 23 24 25 26 27 28 29 30 31 32 33 34 35 36 37 38 39 40 41
000
FTUS44 KFWD 041814 AAA
TAFDFW
TAF AMD
KDFW 041814Z 0418/0524 36015G25KT 3SM -RA BR OVC009
     FM050000 36024G34KT 3SM -FZRA OVC007
     FM050300 36022G32KT 3SM -PL OVC008
     FM050500 35022G32KT 1SM TSPL OVC005CB
     FM050800 35020G30KT 2SM -SN OVC006
     FM051000 36018KT P6SM SCT006 BKN100
     FM051800 01010KT P6SM FEW120=

USA.gov is the U.S. government's official web portal to all federal, state and local government web resources and services.